x

Yucatan Basin - 120 Nm Ese Of Cozumel, Mx (42056) Wave Buoy

3:50pm - Wed 3rd Jun 2015 All times are CDT. -5 hours from GMT.

  • Sig Wave height 3.6ft
  • Swell Direction
  • Peak Period 6s
  • Average Period 5s
  • Wind
    13mph, 16mph gusts
  • Sea Temp 84°f
  • 空気 Temp 82°f
  • Sea Pressure 1008mb
  •  Yucatan Basin - 120 Nm Ese Of Cozumel, Mx
  •  Yucatan Basin - 120 Nm Ese Of Cozumel, Mx

More Historic Weather Station data

Upgrade to MSW Pro to gain access to the past 30 days of data for over 8000 Wavebouys and Weather Stations around the globe.

Join Pro

Comparision Forecast

View Surf forecast
   
Wed 06/03 3:50pm 3.5ft 6s 5s 13 16 mph 1008mb 84f 82f
2:50pm 3.5ft 5s 5s 11 13 mph 1008.9mb 84f 82f
1:50pm 3.5ft 7s 5s 7 9 mph 1009.8mb 84f 81f
12:50pm 3.5ft 5s 5s 11 16 mph 1010.2mb 84f 80f
11:50am 3.5ft 6s 5s 11 13 mph 1010.6mb 84f 81f
10:50am 3.5ft 6s 5s 13 16 mph 1010.6mb 83f 82f
9:50am 3.5ft 7s 5s 11 13 mph 1010.4mb 83f 81f
8:50am 3.5ft 7s 6s 9 13 mph 1010.1mb 83f 81f
7:50am 4ft 6s 5s 4 7 mph 1010.2mb 83f 79f
6:50am 3.5ft 6s 5s 9 11 mph 1009.8mb 83f 79f
5:50am 3.5ft 7s 5s 7 9 mph 1009.2mb 83f 80f
4:50am 3.5ft 7s 5s 7 11 mph 1008.7mb 83f 80f
3:50am 4ft 7s 5s 4 9 mph 1009.1mb 83f 78f
2:50am 4ft 6s 5s 2 7 mph 1009.5mb 83f 78f
1:50am 3.5ft 6s 5s 2
mph
1010.2mb 83f 78f
12:50am 4ft 5s 5s  -  2 mph 1011mb 83f 78f
Tue 06/02 11:50pm 3.5ft 6s 5s 2 4 mph 1011.2mb 83f 78f
10:50pm 3.5ft 7s 5s 7 9 mph 1011.5mb 83f 77f
9:50pm 3.5ft 6s 5s 7 9 mph 1012mb 83f 77f
8:50pm 3.5ft 8s 5s 7 9 mph 1011.5mb 83f 80f
7:50pm 3.5ft 6s 5s 4 7 mph 1011.1mb 83f 80f
6:50pm 4.5ft 6s 5s 9
mph
1010.6mb 83f 79f
5:50pm 4ft 6s 5s 9 11 mph 1010.6mb 83f 79f
4:50pm 4ft 5s 5s 11 13 mph 1010.3mb 83f 80f
3:50pm 4ft 6s 5s 16 18 mph 1010.9mb 83f 79f
2:50pm 4ft 7s 5s 16 20 mph 1011.8mb 83f 78f
1:50pm 4ft 7s 5s 11 13 mph 1012.3mb 83f 79f
12:50pm 4ft 7s 5s 13 16 mph 1012.9mb 83f 78f
11:50am 3.5ft 7s 5s 18 22 mph 1013.5mb 83f 80f
10:50am 3.5ft 6s 5s 18 22 mph 1013.7mb 83f 80f
9:50am 3.5ft 6s 5s 13 16 mph 1013.9mb 83f 81f
8:50am 3.5ft 7s 5s 13 16 mph 1013.5mb 83f 80f
7:50am 3ft 6s 5s 9 11 mph 1013.9mb 83f 80f
6:50am 3.5ft 7s 5s 11 13 mph 1012.9mb 83f 80f
5:50am 3.5ft 7s 5s 13 16 mph 1012.8mb 83f 79f
4:50am 3.5ft 6s 5s 11 13 mph 1012.7mb 83f 79f
3:50am 3.5ft 6s 5s 7 9 mph 1013.2mb 83f 78f
2:50am 3.5ft 6s 5s 9 11 mph 1013.4mb 83f 78f
1:50am 3.5ft 6s 5s 7 9 mph 1014.1mb 83f 77f
12:50am 3.5ft 5s 5s 7 9 mph 1014.8mb 83f 75f
Mon 06/01 11:50pm 3.5ft 6s 5s 11 13 mph 1015.9mb 83f 76f
10:50pm 3.5ft 5s 4s 7 11 mph 1016.4mb 83f 77f
9:50pm 3.5ft 5s 4s 11 16 mph 1016.4mb 83f 75f
8:50pm 3ft 5s 5s 9 16 mph 1015.5mb 83f 81f
7:50pm 3ft 5s 4s 7
mph
1014.6mb 83f 81f
5:50pm 3.5ft 5s 4s 11 13 mph 1013.9mb 83f 81f
4:50pm 3.5ft 6s 4s 11 13 mph 1013.8mb 83f 81f
3:50pm 3.5ft 4s 4s 16 18 mph 1013.9mb 83f 81f
2:50pm 3.5ft 5s 4s 11
mph
1014.1mb 83f 79f
1:50pm 3.5ft 5s 4s 16 22 mph 1014.5mb 83f 79f
12:50pm 3.5ft 5s 4s 18 20 mph 1014.8mb 83f 82f
11:50am 2.5ft 5s 4s 16 20 mph 1015.5mb 83f 83f
10:50am 2.5ft 5s 4s 18 20 mph 1015.4mb 83f 83f
9:50am 3ft 5s 4s 16 18 mph 1015.5mb 83f 83f
8:50am 3ft 5s 4s 13 16 mph 1015.2mb 83f 83f
7:50am 3ft 5s 4s 11 13 mph 1014.9mb 83f 83f
6:50am 2.5ft 5s 4s 13 16 mph 1014.7mb 83f 83f
5:50am 2.5ft 5s 4s 13 16 mph 1014.4mb 83f 83f
4:50am 2.5ft 5s 4s 13 16 mph 1014mb 83f 82f
3:50am 2.5ft 5s 4s 11 13 mph 1013.9mb 83f 82f
2:50am 2.5ft 5s 4s 11 13 mph 1013.6mb 83f 82f
1:50am 2.5ft 5s 4s 9 11 mph 1013.9mb 83f 82f
12:50am 2.5ft 5s 4s 9 11 mph 1014.7mb 83f 82f
Sun 05/31 11:50pm 3ft 5s 4s 11
mph
1015.2mb 83f 82f
10:50pm 3ft 5s 4s 13 16 mph 1015.1mb 83f 83f
9:50pm 3ft 5s 4s 11 13 mph 1015.2mb 83f 82f
8:50pm 3ft 5s 4s 11 13 mph 1014.8mb 83f 82f
7:50pm 3.5ft 5s 4s 16 18 mph 1014.5mb 83f 83f
6:50pm 3.5ft 5s 4s 16 18 mph 1014mb 83f 83f
5:50pm 3ft 6s 4s 16 18 mph 1013.4mb 83f 83f
4:50pm 3ft 5s 4s 13 16 mph 1013.2mb 83f 83f
3:50pm 3ft 5s 4s 16 18 mph 1013.8mb 83f 83f
2:50pm 3ft 6s 4s 16 20 mph 1014.1mb 83f 83f
1:50pm 3ft 5s 4s 16 18 mph 1014.8mb 83f 83f
12:50pm 3ft 5s 4s 16 18 mph 1014.9mb 83f 83f
11:50am 2.5ft 6s 4s 16 18 mph 1014.8mb 83f 83f
10:50am 2.5ft 6s 4s 13 18 mph 1014.8mb 83f 83f
9:50am 2.5ft 6s 4s 13 16 mph 1014.7mb 83f 82f
8:50am 3ft 6s 5s 11 13 mph 1014.6mb 83f 83f
7:50am 2.5ft 6s 5s 11 13 mph 1014.2mb 83f 82f
6:50am 2.5ft 6s 5s 9 11 mph 1014mb 83f 82f
5:50am 2.5ft 5s 4s 9 11 mph 1013.7mb 83f 82f
4:50am 2.5ft 5s 4s 11 13 mph 1013.4mb 83f 82f
3:50am 2.5ft 5s 4s 11 13 mph 1013mb 83f 82f
2:50am 2.5ft 5s 4s 11 13 mph 1013.1mb 83f 82f
1:50am 2.5ft 5s 4s 11 16 mph 1013.1mb 83f 82f
12:50am 2.5ft 6s 4s 16 18 mph 1013.4mb 83f 82f
Sat 05/30 11:50pm 2.5ft 6s 4s 13 18 mph 1013.9mb 83f 82f
10:50pm 2.5ft 7s 4s 13 18 mph 1014.5mb 83f 82f